createdAt,value
2022-07-30T00:03:45.025Z,21.64
2022-07-30T00:08:52.577Z,21.72
2022-07-30T00:13:57.586Z,21.32
2022-07-30T00:19:02.614Z,21.56
2022-07-30T00:24:11.278Z,21.73
2022-07-30T00:29:16.429Z,21.66
2022-07-30T00:34:21.583Z,21.64
2022-07-30T00:39:30.665Z,21.49
2022-07-30T00:44:35.860Z,21.19
2022-07-30T00:49:46.338Z,21.09
2022-07-30T00:54:54.021Z,20.83
2022-07-30T00:59:59.307Z,20.70
2022-07-30T01:05:04.142Z,20.46
2022-07-30T01:10:14.039Z,20.51
2022-07-30T01:15:22.588Z,20.51
2022-07-30T01:20:32.865Z,20.42
2022-07-30T01:25:55.712Z,20.46
2022-07-30T01:31:01.918Z,20.41
2022-07-30T01:36:11.710Z,20.44
2022-07-30T01:41:22.299Z,20.15
2022-07-30T01:46:28.495Z,20.01
2022-07-30T01:51:37.358Z,20.00
2022-07-30T01:56:47.433Z,19.88
2022-07-30T02:01:52.478Z,19.81
2022-07-30T02:07:04.337Z,19.84
2022-07-30T02:12:32.828Z,19.86
2022-07-30T02:17:53.346Z,19.72
2022-07-30T02:23:03.721Z,19.70
2022-07-30T02:28:14.406Z,19.67
2022-07-30T02:33:23.928Z,19.46
2022-07-30T02:38:32.935Z,19.48
2022-07-30T02:43:40.796Z,19.57
2022-07-30T02:48:49.141Z,19.78
2022-07-30T02:53:56.474Z,19.81
2022-07-30T02:59:06.102Z,19.66
2022-07-30T03:04:12.132Z,19.47
2022-07-30T03:09:19.098Z,19.49
2022-07-30T03:14:27.237Z,19.40
2022-07-30T03:19:35.881Z,19.55
2022-07-30T03:24:43.783Z,19.37
2022-07-30T03:29:55.362Z,19.40
2022-07-30T03:35:06.194Z,19.20
2022-07-30T03:40:13.835Z,19.03
2022-07-30T03:45:23.211Z,19.43
2022-07-30T03:50:31.126Z,19.42
2022-07-30T03:55:36.752Z,19.20
2022-07-30T04:01:22.448Z,19.26
2022-07-30T04:06:28.289Z,19.12
2022-07-30T04:11:41.631Z,19.31
2022-07-30T04:17:04.365Z,19.18
2022-07-30T04:22:12.663Z,19.04
2022-07-30T04:27:19.065Z,18.98
2022-07-30T04:32:26.677Z,19.11
2022-07-30T04:38:02.757Z,19.21
2022-07-30T04:43:08.074Z,19.17
2022-07-30T04:48:18.364Z,18.92
2022-07-30T04:53:51.309Z,18.87
2022-07-30T04:58:59.348Z,18.79
2022-07-30T05:04:10.764Z,18.80
2022-07-30T05:09:17.957Z,19.00
2022-07-30T05:14:23.153Z,18.76
2022-07-30T05:19:30.957Z,18.55
2022-07-30T05:24:35.868Z,18.63
2022-07-30T05:29:40.830Z,18.82
2022-07-30T05:34:55.150Z,18.95
2022-07-30T05:40:03.144Z,19.06
2022-07-30T05:45:47.316Z,18.97
2022-07-30T05:50:54.861Z,19.03
2022-07-30T05:56:01.234Z,19.04
2022-07-30T06:01:36.170Z,18.95
2022-07-30T06:06:52.133Z,19.37
2022-07-30T06:11:57.505Z,19.52
2022-07-30T06:17:03.374Z,19.22
2022-07-30T06:22:27.887Z,19.52
2022-07-30T06:27:39.578Z,19.17
2022-07-30T06:32:48.713Z,19.45
2022-07-30T06:38:07.458Z,19.62
2022-07-30T06:43:25.823Z,19.64
2022-07-30T06:48:46.950Z,19.75
2022-07-30T06:53:54.507Z,19.32
2022-07-30T06:59:20.803Z,19.60
2022-07-30T07:04:32.583Z,19.76
2022-07-30T07:09:44.662Z,19.92
2022-07-30T07:15:09.924Z,19.97
2022-07-30T07:20:16.250Z,19.68
2022-07-30T07:25:29.993Z,19.57
2022-07-30T07:30:35.320Z,19.44
2022-07-30T07:35:49.390Z,19.43
2022-07-30T07:41:07.707Z,19.76
2022-07-30T07:46:16.542Z,19.77
2022-07-30T07:51:47.066Z,19.68
2022-07-30T07:56:59.532Z,19.88
2022-07-30T08:02:16.675Z,19.80
2022-07-30T08:07:35.039Z,19.91
2022-07-30T08:12:51.735Z,19.89
2022-07-30T08:18:16.042Z,20.25
2022-07-30T08:23:33.110Z,20.32
2022-07-30T08:28:43.196Z,20.35
2022-07-30T08:33:48.345Z,20.35
2022-07-30T08:38:53.975Z,20.22
2022-07-30T08:44:03.860Z,20.06
2022-07-30T08:49:11.386Z,19.90
2022-07-30T08:54:23.880Z,19.89
2022-07-30T08:59:59.044Z,19.86
2022-07-30T09:04:57.864Z,20.18
2022-07-30T09:10:06.285Z,19.95
2022-07-30T09:15:17.918Z,20.10
2022-07-30T09:20:24.225Z,20.35
2022-07-30T09:25:38.384Z,20.30
2022-07-30T09:31:04.957Z,20.26
2022-07-30T09:36:35.031Z,20.36
2022-07-30T09:42:04.788Z,20.21
2022-07-30T09:47:12.610Z,20.03
2022-07-30T09:52:30.928Z,19.95
2022-07-30T09:57:37.495Z,20.34
2022-07-30T10:03:00.601Z,20.22
2022-07-30T10:08:46.190Z,20.59
2022-07-30T10:13:53.245Z,21.09
2022-07-30T10:19:03.630Z,20.80
2022-07-30T10:24:33.002Z,21.24
2022-07-30T10:30:03.533Z,22.13
2022-07-30T10:35:12.492Z,22.82
2022-07-30T10:40:40.957Z,22.11
2022-07-30T10:45:56.052Z,21.79
2022-07-30T10:51:04.183Z,21.83
2022-07-30T10:56:25.618Z,21.43
2022-07-30T11:02:14.946Z,21.60
2022-07-30T11:07:34.558Z,21.37
2022-07-30T11:12:55.953Z,21.46
2022-07-30T11:18:13.107Z,21.40
2022-07-30T11:23:40.773Z,21.56
2022-07-30T11:28:49.479Z,21.68
2022-07-30T11:34:17.234Z,22.19
2022-07-30T11:39:22.248Z,22.10
2022-07-30T11:44:39.486Z,22.23
2022-07-30T11:49:49.013Z,21.83
2022-07-30T11:54:56.310Z,22.73
2022-07-30T12:00:01.609Z,22.67
2022-07-30T12:05:10.653Z,22.30
2022-07-30T12:10:26.807Z,22.97
2022-07-30T12:15:34.185Z,22.61
2022-07-30T12:20:42.455Z,22.14
2022-07-30T12:25:47.792Z,22.31
2022-07-30T12:30:57.046Z,22.59
2022-07-30T12:36:04.525Z,23.18
2022-07-30T12:41:09.400Z,22.87
2022-07-30T12:46:16.466Z,22.53
2022-07-30T12:51:25.317Z,22.84
2022-07-30T12:56:33.685Z,22.62
2022-07-30T13:01:42.520Z,22.28
2022-07-30T13:07:07.224Z,22.51
2022-07-30T13:12:15.336Z,22.77
2022-07-30T13:17:21.437Z,22.75
2022-07-30T13:22:29.559Z,22.56
2022-07-30T13:27:34.843Z,23.03
2022-07-30T13:32:39.715Z,22.52
2022-07-30T13:37:47.279Z,22.55
2022-07-30T13:42:54.556Z,22.58
2022-07-30T13:48:00.123Z,22.52
2022-07-30T13:53:08.815Z,22.29
2022-07-30T13:58:13.870Z,22.23
2022-07-30T14:03:18.917Z,22.07
2022-07-30T14:08:28.678Z,22.23
2022-07-30T14:13:35.965Z,22.21
2022-07-30T14:18:40.921Z,22.22
2022-07-30T14:23:49.065Z,22.28
2022-07-30T14:28:54.005Z,22.47
2022-07-30T14:33:58.954Z,22.42
2022-07-30T14:39:07.612Z,22.32
2022-07-30T14:44:13.914Z,22.39
2022-07-30T14:49:22.622Z,22.47
2022-07-30T14:54:31.457Z,22.55
2022-07-30T14:59:36.475Z,22.76
2022-07-30T15:04:41.515Z,22.38
2022-07-30T15:09:49.021Z,22.52
2022-07-30T15:14:54.019Z,22.27
2022-07-30T15:19:59.094Z,22.28
2022-07-30T15:25:07.437Z,21.99
2022-07-30T15:30:14.063Z,22.14
2022-07-30T15:35:19.003Z,22.31
2022-07-30T15:40:26.615Z,21.76
2022-07-30T15:45:31.640Z,21.92
2022-07-30T15:50:56.483Z,21.87
2022-07-30T15:56:04.662Z,21.82
2022-07-30T16:01:09.691Z,22.30
2022-07-30T16:06:14.757Z,22.91
2022-07-30T16:11:22.289Z,22.41
2022-07-30T16:16:27.384Z,22.69
2022-07-30T16:21:32.256Z,22.33
2022-07-30T16:26:40.137Z,22.87
2022-07-30T16:31:45.041Z,22.37
2022-07-30T16:36:50.207Z,22.14
2022-07-30T16:41:57.789Z,22.12
2022-07-30T16:47:03.254Z,22.68
2022-07-30T16:52:08.610Z,22.40
2022-07-30T16:57:16.692Z,22.49
2022-07-30T17:02:21.648Z,22.41
2022-07-30T17:07:26.564Z,22.06
2022-07-30T17:12:34.127Z,21.68
2022-07-30T17:17:39.018Z,21.97
2022-07-30T17:22:44.021Z,21.89
2022-07-30T17:27:51.992Z,22.10
2022-07-30T17:32:57.336Z,22.01
2022-07-30T17:38:02.294Z,21.94
2022-07-30T17:43:11.656Z,21.83
2022-07-30T17:48:19.382Z,21.81
2022-07-30T17:53:24.441Z,21.83
2022-07-30T17:58:34.348Z,21.79
2022-07-30T18:03:39.165Z,21.69
2022-07-30T18:08:50.240Z,21.51
2022-07-30T18:13:57.774Z,21.43
2022-07-30T18:19:03.450Z,21.26
2022-07-30T18:24:09.405Z,21.02
2022-07-30T18:29:21.787Z,21.43
2022-07-30T18:34:26.743Z,21.41
2022-07-30T18:39:31.866Z,21.25
2022-07-30T18:44:41.972Z,21.10
2022-07-30T18:49:48.756Z,21.32
2022-07-30T18:54:53.707Z,20.82
2022-07-30T19:00:01.560Z,20.52
2022-07-30T19:05:08.125Z,20.55
2022-07-30T19:10:14.461Z,20.53
2022-07-30T19:15:22.125Z,20.29
2022-07-30T19:20:27.413Z,20.21
2022-07-30T19:25:33.924Z,20.03
2022-07-30T19:30:42.212Z,19.80
2022-07-30T19:35:47.374Z,19.85
2022-07-30T19:40:52.606Z,19.75
2022-07-30T19:46:00.106Z,19.80
2022-07-30T19:51:05.140Z,19.95
2022-07-30T19:56:20.873Z,19.84
2022-07-30T20:06:56.104Z,19.66
2022-07-30T20:12:03.811Z,19.61
2022-07-30T20:17:12.798Z,19.41
2022-07-30T20:22:20.001Z,19.29
2022-07-30T20:32:55.904Z,18.88
2022-07-30T20:38:03.887Z,18.56
2022-07-30T20:43:12.686Z,18.68
2022-07-30T20:48:25.408Z,18.64
2022-07-30T20:53:33.419Z,18.43
2022-07-30T20:58:41.758Z,18.44
2022-07-30T21:03:56.637Z,18.53
2022-07-30T21:09:02.366Z,18.68
2022-07-30T21:14:08.714Z,18.27
2022-07-30T21:19:18.526Z,18.42
2022-07-30T21:24:24.664Z,18.63
2022-07-30T21:29:29.735Z,18.57
2022-07-30T21:34:41.921Z,18.85
2022-07-30T21:39:47.231Z,18.83
2022-07-30T21:44:52.171Z,18.27
2022-07-30T21:50:00.103Z,18.49
2022-07-30T21:55:07.320Z,18.44
2022-07-30T22:00:21.933Z,18.63
2022-07-30T22:05:38.762Z,18.32
2022-07-30T22:10:45.618Z,18.28
2022-07-30T22:15:51.145Z,17.97
2022-07-30T22:20:58.948Z,17.96
2022-07-30T22:26:03.900Z,17.96
2022-07-30T22:31:14.156Z,18.27
2022-07-30T22:36:24.670Z,18.35
2022-07-30T22:41:30.253Z,17.99
2022-07-30T22:46:37.780Z,18.11
2022-07-30T22:52:01.086Z,17.92
2022-07-30T22:57:10.801Z,17.63
2022-07-30T23:02:16.156Z,17.56
2022-07-30T23:07:29.173Z,17.51
2022-07-30T23:12:15.623Z,19.39
2022-07-30T23:12:19.636Z,18.87
2022-07-30T23:12:44.874Z,17.59
2022-07-30T23:17:50.729Z,17.44
2022-07-30T23:22:58.346Z,17.36
2022-07-30T23:28:04.179Z,17.20
2022-07-30T23:33:09.137Z,17.12
2022-07-30T23:38:16.982Z,16.99
2022-07-30T23:43:21.965Z,16.72
2022-07-30T23:48:28.260Z,16.73
2022-07-30T23:53:36.865Z,16.84
2022-07-30T23:58:42.498Z,17.19
